sensor_id;sensor_type;location;lat;lon;timestamp;pressure;altitude;pressure_sealevel;temperature;humidity
69257;BME280;56376;53.356;-1.748;2022-11-15T00:01:30;98074.84;;;9.47;100.00
69257;BME280;56376;53.356;-1.748;2022-11-15T00:03:55;98068.28;;;9.40;100.00
69257;BME280;56376;53.356;-1.748;2022-11-15T00:06:20;98070.16;;;9.38;100.00
69257;BME280;56376;53.356;-1.748;2022-11-15T00:08:46;98056.44;;;9.34;100.00
69257;BME280;56376;53.356;-1.748;2022-11-15T00:11:12;98060.88;;;9.32;100.00
69257;BME280;56376;53.356;-1.748;2022-11-15T00:13:38;98068.09;;;9.27;100.00
69257;BME280;56376;53.356;-1.748;2022-11-15T00:16:03;98067.44;;;9.23;100.00
69257;BME280;56376;53.356;-1.748;2022-11-15T00:18:30;98057.19;;;9.20;100.00
69257;BME280;56376;53.356;-1.748;2022-11-15T00:20:56;98049.56;;;9.17;100.00
69257;BME280;56376;53.356;-1.748;2022-11-15T00:23:21;98050.53;;;9.15;100.00
69257;BME280;56376;53.356;-1.748;2022-11-15T00:25:47;98052.41;;;9.13;100.00
69257;BME280;56376;53.356;-1.748;2022-11-15T00:28:20;98047.44;;;9.08;100.00
69257;BME280;56376;53.356;-1.748;2022-11-15T00:30:45;98049.34;;;9.04;100.00
69257;BME280;56376;53.356;-1.748;2022-11-15T00:33:10;98047.91;;;8.99;100.00
69257;BME280;56376;53.356;-1.748;2022-11-15T00:35:36;98045.56;;;8.94;100.00
69257;BME280;56376;53.356;-1.748;2022-11-15T00:38:01;98038.16;;;8.86;100.00
69257;BME280;56376;53.356;-1.748;2022-11-15T00:40:27;98028.84;;;8.82;100.00
69257;BME280;56376;53.356;-1.748;2022-11-15T00:42:53;98023.03;;;8.77;100.00
69257;BME280;56376;53.356;-1.748;2022-11-15T00:45:18;98020.50;;;8.76;100.00
69257;BME280;56376;53.356;-1.748;2022-11-15T00:47:44;98020.66;;;8.73;100.00
69257;BME280;56376;53.356;-1.748;2022-11-15T00:50:10;98005.28;;;8.68;100.00
69257;BME280;56376;53.356;-1.748;2022-11-15T00:52:36;98004.53;;;8.66;100.00
69257;BME280;56376;53.356;-1.748;2022-11-15T00:55:01;98000.31;;;8.63;100.00
69257;BME280;56376;53.356;-1.748;2022-11-15T00:57:27;97989.31;;;8.58;100.00
69257;BME280;56376;53.356;-1.748;2022-11-15T00:59:52;97996.34;;;8.56;100.00
69257;BME280;56376;53.356;-1.748;2022-11-15T01:02:17;97981.25;;;8.47;100.00
69257;BME280;56376;53.356;-1.748;2022-11-15T01:04:43;97980.63;;;8.42;100.00
69257;BME280;56376;53.356;-1.748;2022-11-15T01:07:08;97973.03;;;8.37;100.00
69257;BME280;56376;53.356;-1.748;2022-11-15T01:09:34;97964.69;;;8.31;100.00
69257;BME280;56376;53.356;-1.748;2022-11-15T01:11:59;97968.22;;;8.30;100.00
69257;BME280;56376;53.356;-1.748;2022-11-15T01:14:25;97964.88;;;8.28;100.00
69257;BME280;56376;53.356;-1.748;2022-11-15T01:16:50;97972.72;;;8.26;100.00
69257;BME280;56376;53.356;-1.748;2022-11-15T01:19:15;97954.63;;;8.24;100.00
69257;BME280;56376;53.356;-1.748;2022-11-15T01:21:41;97951.03;;;8.27;100.00
69257;BME280;56376;53.356;-1.748;2022-11-15T01:24:07;97957.91;;;8.28;100.00
69257;BME280;56376;53.356;-1.748;2022-11-15T01:26:36;97944.88;;;8.28;100.00
69257;BME280;56376;53.356;-1.748;2022-11-15T01:29:02;97944.81;;;8.30;100.00
69257;BME280;56376;53.356;-1.748;2022-11-15T01:31:27;97943.28;;;8.26;100.00
69257;BME280;56376;53.356;-1.748;2022-11-15T01:33:52;97942.44;;;8.25;100.00
69257;BME280;56376;53.356;-1.748;2022-11-15T01:36:20;97956.69;;;8.18;100.00
69257;BME280;56376;53.356;-1.748;2022-11-15T01:38:52;97934.69;;;8.08;100.00
69257;BME280;56376;53.356;-1.748;2022-11-15T01:41:21;97946.25;;;8.02;100.00
69257;BME280;56376;53.356;-1.748;2022-11-15T01:43:51;97928.44;;;7.94;100.00
69257;BME280;56376;53.356;-1.748;2022-11-15T01:46:32;97908.16;;;7.84;100.00
69257;BME280;56376;53.356;-1.748;2022-11-15T01:49:02;97917.22;;;7.76;100.00
69257;BME280;56376;53.356;-1.748;2022-11-15T01:51:31;97917.44;;;7.72;100.00
69257;BME280;56376;53.356;-1.748;2022-11-15T01:54:02;97917.34;;;7.73;100.00
69257;BME280;56376;53.356;-1.748;2022-11-15T01:56:33;97911.25;;;7.74;100.00
69257;BME280;56376;53.356;-1.748;2022-11-15T01:59:03;97900.84;;;7.74;100.00
69257;BME280;56376;53.356;-1.748;2022-11-15T02:01:31;97894.81;;;7.74;100.00
69257;BME280;56376;53.356;-1.748;2022-11-15T02:06:35;97900.47;;;7.65;100.00
69257;BME280;56376;53.356;-1.748;2022-11-15T02:09:01;97891.22;;;7.59;100.00
69257;BME280;56376;53.356;-1.748;2022-11-15T02:11:26;97883.50;;;7.57;100.00
69257;BME280;56376;53.356;-1.748;2022-11-15T02:13:52;97868.13;;;7.53;100.00
69257;BME280;56376;53.356;-1.748;2022-11-15T02:19:11;97871.66;;;7.52;100.00
69257;BME280;56376;53.356;-1.748;2022-11-15T02:27:59;97851.78;;;7.51;100.00
69257;BME280;56376;53.356;-1.748;2022-11-15T02:38:11;97810.97;;;7.53;100.00
69257;BME280;56376;53.356;-1.748;2022-11-15T02:41:15;97811.75;;;7.55;100.00
69257;BME280;56376;53.356;-1.748;2022-11-15T02:43:53;97807.25;;;7.58;100.00
69257;BME280;56376;53.356;-1.748;2022-11-15T02:46:47;97799.19;;;7.63;100.00
69257;BME280;56376;53.356;-1.748;2022-11-15T02:49:34;97793.59;;;7.71;100.00
69257;BME280;56376;53.356;-1.748;2022-11-15T02:52:02;97782.19;;;7.73;100.00
69257;BME280;56376;53.356;-1.748;2022-11-15T02:54:30;97776.75;;;7.78;100.00
69257;BME280;56376;53.356;-1.748;2022-11-15T02:57:03;97773.16;;;7.80;100.00
69257;BME280;56376;53.356;-1.748;2022-11-15T03:02:36;97754.66;;;7.87;100.00
69257;BME280;56376;53.356;-1.748;2022-11-15T03:11:18;97741.56;;;7.88;100.00
69257;BME280;56376;53.356;-1.748;2022-11-15T03:16:34;97739.53;;;7.93;100.00
69257;BME280;56376;53.356;-1.748;2022-11-15T03:19:13;97728.31;;;7.93;100.00
69257;BME280;56376;53.356;-1.748;2022-11-15T03:21:40;97733.34;;;7.96;100.00
69257;BME280;56376;53.356;-1.748;2022-11-15T03:24:07;97725.47;;;7.97;100.00
69257;BME280;56376;53.356;-1.748;2022-11-15T03:26:35;97716.66;;;8.00;100.00
69257;BME280;56376;53.356;-1.748;2022-11-15T03:29:08;97711.28;;;8.03;100.00
69257;BME280;56376;53.356;-1.748;2022-11-15T03:31:39;97709.63;;;8.02;100.00
69257;BME280;56376;53.356;-1.748;2022-11-15T03:36:47;97711.22;;;8.05;100.00
69257;BME280;56376;53.356;-1.748;2022-11-15T03:39:14;97703.16;;;8.09;100.00
69257;BME280;56376;53.356;-1.748;2022-11-15T03:41:46;97712.56;;;8.12;100.00
69257;BME280;56376;53.356;-1.748;2022-11-15T03:44:34;97711.56;;;8.14;100.00
69257;BME280;56376;53.356;-1.748;2022-11-15T03:47:12;97708.00;;;8.15;100.00
69257;BME280;56376;53.356;-1.748;2022-11-15T03:49:46;97707.09;;;8.16;100.00
69257;BME280;56376;53.356;-1.748;2022-11-15T03:52:18;97703.50;;;8.19;100.00
69257;BME280;56376;53.356;-1.748;2022-11-15T03:54:52;97693.94;;;8.19;100.00
69257;BME280;56376;53.356;-1.748;2022-11-15T03:57:18;97690.41;;;8.20;100.00
69257;BME280;56376;53.356;-1.748;2022-11-15T03:59:44;97680.81;;;8.21;100.00
69257;BME280;56376;53.356;-1.748;2022-11-15T04:02:09;97670.34;;;8.22;100.00
69257;BME280;56376;53.356;-1.748;2022-11-15T04:04:35;97672.78;;;8.26;100.00
69257;BME280;56376;53.356;-1.748;2022-11-15T04:07:00;97669.25;;;8.27;100.00
69257;BME280;56376;53.356;-1.748;2022-11-15T04:09:25;97669.25;;;8.27;100.00
69257;BME280;56376;53.356;-1.748;2022-11-15T04:11:51;97659.69;;;8.27;100.00
69257;BME280;56376;53.356;-1.748;2022-11-15T04:14:16;97657.91;;;8.28;100.00
69257;BME280;56376;53.356;-1.748;2022-11-15T04:16:41;97658.66;;;8.30;100.00
69257;BME280;56376;53.356;-1.748;2022-11-15T04:19:07;97657.75;;;8.31;100.00
69257;BME280;56376;53.356;-1.748;2022-11-15T04:21:51;97639.53;;;8.31;100.00
69257;BME280;56376;53.356;-1.748;2022-11-15T04:24:35;97623.09;;;8.30;100.00
69257;BME280;56376;53.356;-1.748;2022-11-15T04:27:00;97626.34;;;8.34;100.00
69257;BME280;56376;53.356;-1.748;2022-11-15T04:29:26;97623.84;;;8.32;100.00
69257;BME280;56376;53.356;-1.748;2022-11-15T04:32:03;97622.91;;;8.33;100.00
69257;BME280;56376;53.356;-1.748;2022-11-15T04:34:29;97609.00;;;8.34;100.00
69257;BME280;56376;53.356;-1.748;2022-11-15T04:36:55;97601.19;;;8.34;100.00
69257;BME280;56376;53.356;-1.748;2022-11-15T04:39:39;97604.44;;;8.38;100.00
69257;BME280;56376;53.356;-1.748;2022-11-15T04:42:05;97598.41;;;8.37;100.00
69257;BME280;56376;53.356;-1.748;2022-11-15T04:44:31;97581.97;;;8.37;100.00
69257;BME280;56376;53.356;-1.748;2022-11-15T04:46:56;97577.47;;;8.39;100.00
69257;BME280;56376;53.356;-1.748;2022-11-15T04:49:22;97581.03;;;8.38;100.00
69257;BME280;56376;53.356;-1.748;2022-11-15T04:51:48;97591.38;;;8.39;100.00
69257;BME280;56376;53.356;-1.748;2022-11-15T04:54:13;97593.19;;;8.37;100.00
69257;BME280;56376;53.356;-1.748;2022-11-15T04:56:38;97576.75;;;8.37;100.00
69257;BME280;56376;53.356;-1.748;2022-11-15T04:59:04;97578.25;;;8.41;100.00
69257;BME280;56376;53.356;-1.748;2022-11-15T05:01:29;97580.69;;;8.44;100.00
69257;BME280;56376;53.356;-1.748;2022-11-15T05:03:55;97574.75;;;8.42;100.00
69257;BME280;56376;53.356;-1.748;2022-11-15T05:06:39;97568.81;;;8.40;100.00
69257;BME280;56376;53.356;-1.748;2022-11-15T05:09:04;97572.28;;;8.39;100.00
69257;BME280;56376;53.356;-1.748;2022-11-15T05:11:30;97563.59;;;8.40;100.00
69257;BME280;56376;53.356;-1.748;2022-11-15T05:13:55;97563.59;;;8.40;100.00
69257;BME280;56376;53.356;-1.748;2022-11-15T05:16:21;97558.28;;;8.41;100.00
69257;BME280;56376;53.356;-1.748;2022-11-15T05:18:46;97565.25;;;8.41;100.00
69257;BME280;56376;53.356;-1.748;2022-11-15T05:21:14;97544.44;;;8.41;100.00
69257;BME280;56376;53.356;-1.748;2022-11-15T05:23:40;97542.69;;;8.41;100.00
69257;BME280;56376;53.356;-1.748;2022-11-15T05:26:10;97543.53;;;8.42;100.00
69257;BME280;56376;53.356;-1.748;2022-11-15T05:28:36;97541.94;;;8.39;100.00
69257;BME280;56376;53.356;-1.748;2022-11-15T05:31:13;97537.56;;;8.40;100.00
69257;BME280;56376;53.356;-1.748;2022-11-15T05:33:40;97540.06;;;8.41;100.00
69257;BME280;56376;53.356;-1.748;2022-11-15T05:36:27;97519.38;;;8.40;100.00
69257;BME280;56376;53.356;-1.748;2022-11-15T05:38:54;97507.25;;;8.39;100.00
69257;BME280;56376;53.356;-1.748;2022-11-15T05:41:24;97521.03;;;8.41;100.00
69257;BME280;56376;53.356;-1.748;2022-11-15T05:43:50;97512.56;;;8.37;100.00
69257;BME280;56376;53.356;-1.748;2022-11-15T05:46:16;97508.13;;;8.39;100.00
69257;BME280;56376;53.356;-1.748;2022-11-15T05:48:45;97486.38;;;8.40;100.00
69257;BME280;56376;53.356;-1.748;2022-11-15T05:51:12;97480.34;;;8.40;100.00
69257;BME280;56376;53.356;-1.748;2022-11-15T05:53:39;97475.03;;;8.41;100.00
69257;BME280;56376;53.356;-1.748;2022-11-15T05:56:05;97473.38;;;8.40;100.00
69257;BME280;56376;53.356;-1.748;2022-11-15T05:58:32;97479.41;;;8.41;100.00
69257;BME280;56376;53.356;-1.748;2022-11-15T06:00:58;97466.41;;;8.41;100.00
69257;BME280;56376;53.356;-1.748;2022-11-15T06:03:24;97473.28;;;8.42;100.00
69257;BME280;56376;53.356;-1.748;2022-11-15T06:05:50;97460.38;;;8.40;100.00
69257;BME280;56376;53.356;-1.748;2022-11-15T06:08:15;97455.91;;;8.42;100.00
69257;BME280;56376;53.356;-1.748;2022-11-15T06:10:41;97450.78;;;8.41;100.00
69257;BME280;56376;53.356;-1.748;2022-11-15T06:13:06;97452.47;;;8.42;100.00
69257;BME280;56376;53.356;-1.748;2022-11-15T06:15:32;97446.41;;;8.41;100.00
69257;BME280;56376;53.356;-1.748;2022-11-15T06:17:58;97449.88;;;8.42;100.00
69257;BME280;56376;53.356;-1.748;2022-11-15T06:20:26;97436.75;;;8.43;100.00
69257;BME280;56376;53.356;-1.748;2022-11-15T06:22:58;97430.72;;;8.43;100.00
69257;BME280;56376;53.356;-1.748;2022-11-15T06:25:25;97424.50;;;8.45;100.00
69257;BME280;56376;53.356;-1.748;2022-11-15T06:27:54;97420.22;;;8.44;100.00
69257;BME280;56376;53.356;-1.748;2022-11-15T06:30:21;97411.50;;;8.45;100.00
69257;BME280;56376;53.356;-1.748;2022-11-15T06:32:47;97408.81;;;8.47;100.00
69257;BME280;56376;53.356;-1.748;2022-11-15T06:35:13;97408.81;;;8.47;100.00
69257;BME280;56376;53.356;-1.748;2022-11-15T06:37:39;97404.31;;;8.49;100.00
69257;BME280;56376;53.356;-1.748;2022-11-15T06:40:05;97396.63;;;8.48;100.00
69257;BME280;56376;53.356;-1.748;2022-11-15T06:42:30;97394.94;;;8.47;100.00
69257;BME280;56376;53.356;-1.748;2022-11-15T06:44:56;97395.69;;;8.49;100.00
69257;BME280;56376;53.356;-1.748;2022-11-15T06:47:21;97386.09;;;8.49;100.00
69257;BME280;56376;53.356;-1.748;2022-11-15T06:49:47;97384.44;;;8.48;100.00
69257;BME280;56376;53.356;-1.748;2022-11-15T06:52:12;97383.50;;;8.49;100.00
69257;BME280;56376;53.356;-1.748;2022-11-15T06:54:37;97367.06;;;8.49;100.00
69257;BME280;56376;53.356;-1.748;2022-11-15T06:57:04;97367.88;;;8.49;100.00
69257;BME280;56376;53.356;-1.748;2022-11-15T06:59:29;97371.25;;;8.51;100.00
69257;BME280;56376;53.356;-1.748;2022-11-15T07:01:55;97360.75;;;8.53;100.00
69257;BME280;56376;53.356;-1.748;2022-11-15T07:04:20;97360.00;;;8.51;100.00
69257;BME280;56376;53.356;-1.748;2022-11-15T07:06:47;97361.38;;;8.56;100.00
69257;BME280;56376;53.356;-1.748;2022-11-15T07:09:13;97358.06;;;8.54;100.00
69257;BME280;56376;53.356;-1.748;2022-11-15T07:11:38;97344.09;;;8.55;100.00
69257;BME280;56376;53.356;-1.748;2022-11-15T07:14:04;97352.47;;;8.60;100.00
69257;BME280;56376;53.356;-1.748;2022-11-15T07:16:29;97349.03;;;8.60;100.00
69257;BME280;56376;53.356;-1.748;2022-11-15T07:18:55;97341.09;;;8.61;100.00
69257;BME280;56376;53.356;-1.748;2022-11-15T07:21:20;97336.66;;;8.63;100.00
69257;BME280;56376;53.356;-1.748;2022-11-15T07:23:46;97334.03;;;8.63;100.00
69257;BME280;56376;53.356;-1.748;2022-11-15T07:26:11;97333.97;;;8.65;100.00
69257;BME280;56376;53.356;-1.748;2022-11-15T07:28:36;97333.00;;;8.66;100.00
69257;BME280;56376;53.356;-1.748;2022-11-15T07:31:07;97328.47;;;8.70;100.00
69257;BME280;56376;53.356;-1.748;2022-11-15T07:33:33;97333.47;;;8.73;100.00
69257;BME280;56376;53.356;-1.748;2022-11-15T07:36:00;97322.50;;;8.68;100.00
69257;BME280;56376;53.356;-1.748;2022-11-15T07:38:27;97324.91;;;8.71;100.00
69257;BME280;56376;53.356;-1.748;2022-11-15T07:41:01;97329.09;;;8.73;100.00
69257;BME280;56376;53.356;-1.748;2022-11-15T07:43:27;97313.47;;;8.73;100.00
69257;BME280;56376;53.356;-1.748;2022-11-15T07:45:53;97317.84;;;8.73;100.00
69257;BME280;56376;53.356;-1.748;2022-11-15T07:48:22;97314.41;;;8.72;100.00
69257;BME280;56376;53.356;-1.748;2022-11-15T07:50:48;97316.91;;;8.74;100.00
69257;BME280;56376;53.356;-1.748;2022-11-15T07:53:13;97310.78;;;8.75;100.00
69257;BME280;56376;53.356;-1.748;2022-11-15T07:55:40;97308.91;;;8.77;100.00
69257;BME280;56376;53.356;-1.748;2022-11-15T07:58:09;97296.81;;;8.76;100.00
69257;BME280;56376;53.356;-1.748;2022-11-15T08:00:35;97308.72;;;8.80;100.00
69257;BME280;56376;53.356;-1.748;2022-11-15T08:03:20;97299.34;;;8.77;100.00
69257;BME280;56376;53.356;-1.748;2022-11-15T08:05:50;97296.63;;;8.79;100.00
69257;BME280;56376;53.356;-1.748;2022-11-15T08:08:16;97292.25;;;8.79;100.00
69257;BME280;56376;53.356;-1.748;2022-11-15T08:10:41;97285.28;;;8.80;100.00
69257;BME280;56376;53.356;-1.748;2022-11-15T08:13:09;97280.09;;;8.80;100.00
69257;BME280;56376;53.356;-1.748;2022-11-15T08:15:39;97282.56;;;8.81;100.00
69257;BME280;56376;53.356;-1.748;2022-11-15T08:18:08;97281.44;;;8.85;100.00
69257;BME280;56376;53.356;-1.748;2022-11-15T08:20:37;97276.34;;;8.84;100.00
69257;BME280;56376;53.356;-1.748;2022-11-15T08:23:04;97281.25;;;8.88;100.00
69257;BME280;56376;53.356;-1.748;2022-11-15T08:25:34;97275.22;;;8.88;100.00
69257;BME280;56376;53.356;-1.748;2022-11-15T08:28:05;97263.97;;;8.87;100.00
69257;BME280;56376;53.356;-1.748;2022-11-15T08:30:35;97270.53;;;8.93;100.00
69257;BME280;56376;53.356;-1.748;2022-11-15T08:33:01;97263.47;;;8.95;100.00
69257;BME280;56376;53.356;-1.748;2022-11-15T08:35:28;97260.75;;;8.97;100.00
69257;BME280;56376;53.356;-1.748;2022-11-15T08:37:53;97256.56;;;8.94;100.00
69257;BME280;56376;53.356;-1.748;2022-11-15T08:40:19;97250.31;;;8.97;100.00
69257;BME280;56376;53.356;-1.748;2022-11-15T08:42:48;97250.25;;;8.98;100.00
69257;BME280;56376;53.356;-1.748;2022-11-15T08:45:14;97232.97;;;8.97;100.00
69257;BME280;56376;53.356;-1.748;2022-11-15T08:47:39;97235.44;;;8.99;100.00
69257;BME280;56376;53.356;-1.748;2022-11-15T08:50:05;97233.66;;;8.99;100.00
69257;BME280;56376;53.356;-1.748;2022-11-15T08:52:31;97224.94;;;9.00;100.00
69257;BME280;56376;53.356;-1.748;2022-11-15T08:54:57;97232.53;;;9.03;100.00
69257;BME280;56376;53.356;-1.748;2022-11-15T08:57:22;97223.06;;;9.02;100.00
69257;BME280;56376;53.356;-1.748;2022-11-15T08:59:47;97215.13;;;9.04;100.00
69257;BME280;56376;53.356;-1.748;2022-11-15T09:02:13;97219.31;;;9.06;100.00
69257;BME280;56376;53.356;-1.748;2022-11-15T09:04:43;97210.66;;;9.06;100.00
69257;BME280;56376;53.356;-1.748;2022-11-15T09:07:13;97203.59;;;9.08;100.00
69257;BME280;56376;53.356;-1.748;2022-11-15T09:09:38;97205.38;;;9.07;100.00
69257;BME280;56376;53.356;-1.748;2022-11-15T09:12:05;97189.75;;;9.07;100.00
69257;BME280;56376;53.356;-1.748;2022-11-15T09:14:31;97186.09;;;9.10;100.00
69257;BME280;56376;53.356;-1.748;2022-11-15T09:16:56;97177.34;;;9.11;100.00
69257;BME280;56376;53.356;-1.748;2022-11-15T09:19:21;97164.00;;;9.16;100.00
69257;BME280;56376;53.356;-1.748;2022-11-15T09:21:47;97162.31;;;9.15;100.00
69257;BME280;56376;53.356;-1.748;2022-11-15T09:24:12;97161.50;;;9.14;100.00
69257;BME280;56376;53.356;-1.748;2022-11-15T09:26:39;97151.72;;;9.18;100.00
69257;BME280;56376;53.356;-1.748;2022-11-15T09:29:04;97149.94;;;9.18;100.00
69257;BME280;56376;53.356;-1.748;2022-11-15T09:31:29;97144.63;;;9.20;100.00
69257;BME280;56376;53.356;-1.748;2022-11-15T09:33:55;97149.94;;;9.18;100.00
69257;BME280;56376;53.356;-1.748;2022-11-15T09:36:21;97147.94;;;9.22;100.00
69257;BME280;56376;53.356;-1.748;2022-11-15T09:38:46;97131.63;;;9.20;100.00
69257;BME280;56376;53.356;-1.748;2022-11-15T09:46:37;97112.22;;;9.24;100.00
69257;BME280;56376;53.356;-1.748;2022-11-15T09:49:06;97105.22;;;9.24;100.00
69257;BME280;56376;53.356;-1.748;2022-11-15T09:51:34;97100.88;;;9.25;100.00
69257;BME280;56376;53.356;-1.748;2022-11-15T09:56:36;97097.41;;;9.24;100.00
69257;BME280;56376;53.356;-1.748;2022-11-15T10:01:44;97091.38;;;9.24;100.00
69257;BME280;56376;53.356;-1.748;2022-11-15T10:04:15;97079.19;;;9.24;100.00
69257;BME280;56376;53.356;-1.748;2022-11-15T10:06:46;97085.94;;;9.27;100.00
69257;BME280;56376;53.356;-1.748;2022-11-15T10:11:40;97077.09;;;9.29;100.00
69257;BME280;56376;53.356;-1.748;2022-11-15T10:14:14;97069.16;;;9.31;100.00
69257;BME280;56376;53.356;-1.748;2022-11-15T10:22:30;97059.72;;;9.30;100.00
69257;BME280;56376;53.356;-1.748;2022-11-15T10:27:34;97039.56;;;9.32;100.00
69257;BME280;56376;53.356;-1.748;2022-11-15T10:30:00;97040.28;;;9.34;100.00
69257;BME280;56376;53.356;-1.748;2022-11-15T10:32:26;97027.50;;;9.31;100.00
69257;BME280;56376;53.356;-1.748;2022-11-15T10:34:52;97029.66;;;9.37;100.00
69257;BME280;56376;53.356;-1.748;2022-11-15T10:37:36;97026.13;;;9.38;100.00
69257;BME280;56376;53.356;-1.748;2022-11-15T10:40:22;97024.25;;;9.40;100.00
69257;BME280;56376;53.356;-1.748;2022-11-15T10:42:49;97031.00;;;9.43;100.00
69257;BME280;56376;53.356;-1.748;2022-11-15T10:45:31;97017.03;;;9.44;100.00
69257;BME280;56376;53.356;-1.748;2022-11-15T10:50:48;97008.78;;;9.50;100.00
69257;BME280;56376;53.356;-1.748;2022-11-15T10:53:29;97000.00;;;9.51;100.00
69257;BME280;56376;53.356;-1.748;2022-11-15T10:56:00;96998.13;;;9.53;100.00
69257;BME280;56376;53.356;-1.748;2022-11-15T10:58:42;96998.00;;;9.54;100.00
69257;BME280;56376;53.356;-1.748;2022-11-15T11:03:39;96987.47;;;9.56;100.00
69257;BME280;56376;53.356;-1.748;2022-11-15T11:06:08;96992.59;;;9.58;100.00
69257;BME280;56376;53.356;-1.748;2022-11-15T11:08:34;96984.41;;;9.62;100.00
69257;BME280;56376;53.356;-1.748;2022-11-15T11:11:01;96974.84;;;9.63;100.00
69257;BME280;56376;53.356;-1.748;2022-11-15T11:13:32;96961.69;;;9.64;100.00
69257;BME280;56376;53.356;-1.748;2022-11-15T11:18:54;96944.06;;;9.68;100.00
69257;BME280;56376;53.356;-1.748;2022-11-15T11:24:48;96950.94;;;9.69;100.00
69257;BME280;56376;53.356;-1.748;2022-11-15T11:32:34;96923.69;;;9.73;100.00
69257;BME280;56376;53.356;-1.748;2022-11-15T11:35:14;96912.56;;;9.71;100.00
69257;BME280;56376;53.356;-1.748;2022-11-15T11:37:50;96911.50;;;9.73;100.00
69257;BME280;56376;53.356;-1.748;2022-11-15T11:43:19;96917.28;;;9.77;100.00
69257;BME280;56376;53.356;-1.748;2022-11-15T11:48:38;96890.41;;;9.77;100.00
69257;BME280;56376;53.356;-1.748;2022-11-15T11:53:54;96882.25;;;9.81;100.00
69257;BME280;56376;53.356;-1.748;2022-11-15T11:56:31;96875.13;;;9.83;100.00
69257;BME280;56376;53.356;-1.748;2022-11-15T11:59:05;96879.41;;;9.84;100.00
69257;BME280;56376;53.356;-1.748;2022-11-15T12:01:37;96875.97;;;9.84;100.00
69257;BME280;56376;53.356;-1.748;2022-11-15T12:04:11;96872.28;;;9.86;100.00
69257;BME280;56376;53.356;-1.748;2022-11-15T12:10:04;96880.69;;;9.90;100.00
69257;BME280;56376;53.356;-1.748;2022-11-15T12:12:36;96872.78;;;9.91;100.00
69257;BME280;56376;53.356;-1.748;2022-11-15T12:17:36;96869.81;;;9.96;100.00
69257;BME280;56376;53.356;-1.748;2022-11-15T12:20:15;96869.69;;;9.97;100.00
69257;BME280;56376;53.356;-1.748;2022-11-15T12:30:49;96836.25;;;10.03;100.00
69257;BME280;56376;53.356;-1.748;2022-11-15T12:33:35;96834.63;;;10.02;100.00
69257;BME280;56376;53.356;-1.748;2022-11-15T12:36:34;96836.06;;;10.06;100.00
69257;BME280;56376;53.356;-1.748;2022-11-15T12:39:05;96831.78;;;10.05;100.00
69257;BME280;56376;53.356;-1.748;2022-11-15T12:41:33;96829.88;;;10.07;100.00
69257;BME280;56376;53.356;-1.748;2022-11-15T12:43:59;96826.31;;;10.08;100.00
69257;BME280;56376;53.356;-1.748;2022-11-15T12:49:53;96803.44;;;10.11;100.00
69257;BME280;56376;53.356;-1.748;2022-11-15T13:02:41;96815.06;;;10.18;100.00
69257;BME280;56376;53.356;-1.748;2022-11-15T13:17:46;96796.56;;;10.22;100.00
69257;BME280;56376;53.356;-1.748;2022-11-15T13:28:17;96788.63;;;10.23;100.00
69257;BME280;56376;53.356;-1.748;2022-11-15T13:30:51;96775.81;;;10.20;100.00
69257;BME280;56376;53.356;-1.748;2022-11-15T13:33:22;96772.97;;;10.23;100.00
69257;BME280;56376;53.356;-1.748;2022-11-15T13:35:57;96775.59;;;10.23;100.00
69257;BME280;56376;53.356;-1.748;2022-11-15T13:40:49;96779.00;;;10.24;100.00
69257;BME280;56376;53.356;-1.748;2022-11-15T13:43:27;96772.63;;;10.28;100.00
69257;BME280;56376;53.356;-1.748;2022-11-15T13:46:07;96763.22;;;10.25;100.00
69257;BME280;56376;53.356;-1.748;2022-11-15T13:48:35;96754.34;;;10.28;100.00
69257;BME280;56376;53.356;-1.748;2022-11-15T13:51:03;96730.75;;;10.29;100.00
69257;BME280;56376;53.356;-1.748;2022-11-15T13:53:32;96742.16;;;10.28;100.00
69257;BME280;56376;53.356;-1.748;2022-11-15T13:55:58;96739.63;;;10.27;100.00
69257;BME280;56376;53.356;-1.748;2022-11-15T13:58:24;96742.03;;;10.30;100.00
69257;BME280;56376;53.356;-1.748;2022-11-15T14:01:00;96734.91;;;10.32;100.00
69257;BME280;56376;53.356;-1.748;2022-11-15T14:03:28;96733.94;;;10.33;100.00
69257;BME280;56376;53.356;-1.748;2022-11-15T14:06:06;96727.91;;;10.32;100.00
69257;BME280;56376;53.356;-1.748;2022-11-15T14:08:32;96724.38;;;10.33;100.00
69257;BME280;56376;53.356;-1.748;2022-11-15T14:11:18;96720.78;;;10.34;100.00
69257;BME280;56376;53.356;-1.748;2022-11-15T14:14:10;96726.25;;;10.31;100.00
69257;BME280;56376;53.356;-1.748;2022-11-15T14:16:45;96736.69;;;10.31;100.00
69257;BME280;56376;53.356;-1.748;2022-11-15T14:24:38;96754.97;;;10.31;100.00
69257;BME280;56376;53.356;-1.748;2022-11-15T14:29:46;96755.78;;;10.32;100.00
69257;BME280;56376;53.356;-1.748;2022-11-15T14:32:23;96762.66;;;10.33;100.00
69257;BME280;56376;53.356;-1.748;2022-11-15T14:34:59;96764.31;;;10.34;100.00
69257;BME280;56376;53.356;-1.748;2022-11-15T14:37:27;96768.72;;;10.33;100.00
69257;BME280;56376;53.356;-1.748;2022-11-15T14:39:53;96772.16;;;10.34;100.00
69257;BME280;56376;53.356;-1.748;2022-11-15T14:42:20;96784.38;;;10.33;100.00
69257;BME280;56376;53.356;-1.748;2022-11-15T14:44:46;96797.78;;;10.29;100.00
69257;BME280;56376;53.356;-1.748;2022-11-15T14:47:12;96809.03;;;10.18;100.00
69257;BME280;56376;53.356;-1.748;2022-11-15T14:49:37;96810.66;;;10.08;100.00
69257;BME280;56376;53.356;-1.748;2022-11-15T14:52:11;96815.41;;;10.03;100.00
69257;BME280;56376;53.356;-1.748;2022-11-15T14:54:41;96832.50;;;9.95;100.00
69257;BME280;56376;53.356;-1.748;2022-11-15T14:57:06;96820.97;;;9.87;100.00
69257;BME280;56376;53.356;-1.748;2022-11-15T14:59:32;96819.44;;;9.84;100.00
69257;BME280;56376;53.356;-1.748;2022-11-15T15:01:57;96826.53;;;9.82;100.00
69257;BME280;56376;53.356;-1.748;2022-11-15T15:04:24;96832.94;;;9.78;100.00
69257;BME280;56376;53.356;-1.748;2022-11-15T15:06:51;96842.66;;;9.76;100.00
69257;BME280;56376;53.356;-1.748;2022-11-15T15:09:18;96840.06;;;9.76;100.00
69257;BME280;56376;53.356;-1.748;2022-11-15T15:11:43;96837.53;;;9.74;100.00
69257;BME280;56376;53.356;-1.748;2022-11-15T15:14:14;96831.41;;;9.75;100.00
69257;BME280;56376;53.356;-1.748;2022-11-15T15:16:39;96833.06;;;9.77;100.00